sensor_id;sensor_type;location;lat;lon;timestamp;temperature;humidity
63051;SHT30;49136;47.416;19.402;2024-03-07T00:00:20;5.90;99.99
63051;SHT30;49136;47.416;19.402;2024-03-07T00:02:48;5.90;99.99
63051;SHT30;49136;47.416;19.402;2024-03-07T00:05:19;5.95;99.99
63051;SHT30;49136;47.416;19.402;2024-03-07T00:07:45;5.94;99.99
63051;SHT30;49136;47.416;19.402;2024-03-07T00:10:10;5.91;99.99
63051;SHT30;49136;47.416;19.402;2024-03-07T00:12:37;5.94;99.99
63051;SHT30;49136;47.416;19.402;2024-03-07T00:15:09;5.94;99.99
63051;SHT30;49136;47.416;19.402;2024-03-07T00:17:36;5.95;99.99
63051;SHT30;49136;47.416;19.402;2024-03-07T00:20:02;5.95;99.99
63051;SHT30;49136;47.416;19.402;2024-03-07T00:22:35;5.97;99.99
63051;SHT30;49136;47.416;19.402;2024-03-07T00:25:01;5.97;99.99
63051;SHT30;49136;47.416;19.402;2024-03-07T00:27:27;5.97;99.99
63051;SHT30;49136;47.416;19.402;2024-03-07T00:29:52;5.94;99.99
63051;SHT30;49136;47.416;19.402;2024-03-07T00:32:19;5.98;99.99
63051;SHT30;49136;47.416;19.402;2024-03-07T00:34:45;5.99;99.99
63051;SHT30;49136;47.416;19.402;2024-03-07T00:37:11;5.98;99.99
63051;SHT30;49136;47.416;19.402;2024-03-07T00:39:36;6.02;99.99
63051;SHT30;49136;47.416;19.402;2024-03-07T00:42:02;6.01;99.99
63051;SHT30;49136;47.416;19.402;2024-03-07T00:44:27;6.01;99.99
63051;SHT30;49136;47.416;19.402;2024-03-07T00:46:53;6.06;99.99
63051;SHT30;49136;47.416;19.402;2024-03-07T00:49:18;6.06;99.99
63051;SHT30;49136;47.416;19.402;2024-03-07T00:51:43;6.05;99.99
63051;SHT30;49136;47.416;19.402;2024-03-07T00:54:09;6.05;99.99
63051;SHT30;49136;47.416;19.402;2024-03-07T00:56:38;6.06;99.99
63051;SHT30;49136;47.416;19.402;2024-03-07T00:59:03;6.06;99.99
63051;SHT30;49136;47.416;19.402;2024-03-07T01:01:29;6.08;99.99
63051;SHT30;49136;47.416;19.402;2024-03-07T01:03:54;6.06;99.99
63051;SHT30;49136;47.416;19.402;2024-03-07T01:06:20;6.04;99.99
63051;SHT30;49136;47.416;19.402;2024-03-07T01:08:45;6.08;99.99
63051;SHT30;49136;47.416;19.402;2024-03-07T01:11:11;6.05;99.99
63051;SHT30;49136;47.416;19.402;2024-03-07T01:13:38;6.05;99.99
63051;SHT30;49136;47.416;19.402;2024-03-07T01:16:04;6.02;99.99
63051;SHT30;49136;47.416;19.402;2024-03-07T01:18:29;6.05;99.99
63051;SHT30;49136;47.416;19.402;2024-03-07T01:20:55;6.08;99.99
63051;SHT30;49136;47.416;19.402;2024-03-07T01:23:21;6.04;99.99
63051;SHT30;49136;47.416;19.402;2024-03-07T01:25:47;6.08;99.99
63051;SHT30;49136;47.416;19.402;2024-03-07T01:28:15;6.06;99.99
63051;SHT30;49136;47.416;19.402;2024-03-07T01:30:43;6.06;99.99
63051;SHT30;49136;47.416;19.402;2024-03-07T01:33:09;6.04;99.99
63051;SHT30;49136;47.416;19.402;2024-03-07T01:35:34;6.06;99.99
63051;SHT30;49136;47.416;19.402;2024-03-07T01:38:01;6.06;99.99
63051;SHT30;49136;47.416;19.402;2024-03-07T01:40:28;6.05;99.99
63051;SHT30;49136;47.416;19.402;2024-03-07T01:42:54;6.01;99.99
63051;SHT30;49136;47.416;19.402;2024-03-07T01:45:20;6.02;99.99
63051;SHT30;49136;47.416;19.402;2024-03-07T01:47:45;6.02;99.99
63051;SHT30;49136;47.416;19.402;2024-03-07T01:50:11;6.06;99.99
63051;SHT30;49136;47.416;19.402;2024-03-07T01:52:39;6.02;99.99
63051;SHT30;49136;47.416;19.402;2024-03-07T01:55:07;6.02;99.99
63051;SHT30;49136;47.416;19.402;2024-03-07T01:57:32;6.02;99.99
63051;SHT30;49136;47.416;19.402;2024-03-07T02:00:00;6.01;99.99
63051;SHT30;49136;47.416;19.402;2024-03-07T02:02:31;5.99;99.99
63051;SHT30;49136;47.416;19.402;2024-03-07T02:04:57;5.94;99.99
63051;SHT30;49136;47.416;19.402;2024-03-07T02:07:23;5.95;99.99
63051;SHT30;49136;47.416;19.402;2024-03-07T02:09:48;6.04;99.99
63051;SHT30;49136;47.416;19.402;2024-03-07T02:12:14;6.04;99.48
63051;SHT30;49136;47.416;19.402;2024-03-07T02:14:39;6.11;99.72
63051;SHT30;49136;47.416;19.402;2024-03-07T02:17:05;6.09;99.99
63051;SHT30;49136;47.416;19.402;2024-03-07T02:19:30;6.06;99.99
63051;SHT30;49136;47.416;19.402;2024-03-07T02:21:57;6.02;99.99
63051;SHT30;49136;47.416;19.402;2024-03-07T02:24:22;6.01;99.99
63051;SHT30;49136;47.416;19.402;2024-03-07T02:26:48;5.95;99.99
63051;SHT30;49136;47.416;19.402;2024-03-07T02:29:14;5.93;99.99
63051;SHT30;49136;47.416;19.402;2024-03-07T02:31:39;5.90;99.99
63051;SHT30;49136;47.416;19.402;2024-03-07T02:34:07;5.87;99.99
63051;SHT30;49136;47.416;19.402;2024-03-07T02:36:35;5.91;99.99
63051;SHT30;49136;47.416;19.402;2024-03-07T02:39:01;5.88;99.99
63051;SHT30;49136;47.416;19.402;2024-03-07T02:41:26;5.86;99.99
63051;SHT30;49136;47.416;19.402;2024-03-07T02:43:52;5.83;99.99
63051;SHT30;49136;47.416;19.402;2024-03-07T02:46:18;5.80;99.99
63051;SHT30;49136;47.416;19.402;2024-03-07T02:48:44;5.83;99.99
63051;SHT30;49136;47.416;19.402;2024-03-07T02:51:10;5.78;99.99
63051;SHT30;49136;47.416;19.402;2024-03-07T02:53:36;5.83;99.99
63051;SHT30;49136;47.416;19.402;2024-03-07T02:56:03;5.83;99.99
63051;SHT30;49136;47.416;19.402;2024-03-07T02:58:29;5.81;99.99
63051;SHT30;49136;47.416;19.402;2024-03-07T03:00:58;5.80;99.99
63051;SHT30;49136;47.416;19.402;2024-03-07T03:03:28;5.81;99.99
63051;SHT30;49136;47.416;19.402;2024-03-07T03:05:56;5.87;99.99
63051;SHT30;49136;47.416;19.402;2024-03-07T03:08:22;5.81;99.99
63051;SHT30;49136;47.416;19.402;2024-03-07T03:10:49;5.86;99.99
63051;SHT30;49136;47.416;19.402;2024-03-07T03:13:16;5.86;99.99
63051;SHT30;49136;47.416;19.402;2024-03-07T03:15:42;5.84;99.99
63051;SHT30;49136;47.416;19.402;2024-03-07T03:18:08;5.80;99.99
63051;SHT30;49136;47.416;19.402;2024-03-07T03:20:35;5.80;99.99
63051;SHT30;49136;47.416;19.402;2024-03-07T03:23:06;5.77;99.99
63051;SHT30;49136;47.416;19.402;2024-03-07T03:25:36;5.77;99.99
63051;SHT30;49136;47.416;19.402;2024-03-07T03:28:04;5.75;99.99
63051;SHT30;49136;47.416;19.402;2024-03-07T03:30:30;5.73;99.99
63051;SHT30;49136;47.416;19.402;2024-03-07T03:32:55;5.71;99.99
63051;SHT30;49136;47.416;19.402;2024-03-07T03:35:21;5.73;99.99
63051;SHT30;49136;47.416;19.402;2024-03-07T03:37:46;5.74;99.99
63051;SHT30;49136;47.416;19.402;2024-03-07T03:40:12;5.75;99.99
63051;SHT30;49136;47.416;19.402;2024-03-07T03:42:38;5.71;99.99
63051;SHT30;49136;47.416;19.402;2024-03-07T03:45:05;5.78;99.05
63051;SHT30;49136;47.416;19.402;2024-03-07T03:47:50;5.81;98.40
63051;SHT30;49136;47.416;19.402;2024-03-07T03:50:16;5.77;98.50
63051;SHT30;49136;47.416;19.402;2024-03-07T03:52:43;5.80;98.22
63051;SHT30;49136;47.416;19.402;2024-03-07T03:55:09;5.75;98.54
63051;SHT30;49136;47.416;19.402;2024-03-07T03:57:36;5.74;98.73
63051;SHT30;49136;47.416;19.402;2024-03-07T04:00:04;5.78;98.51
63051;SHT30;49136;47.416;19.402;2024-03-07T04:02:35;5.77;97.99
63051;SHT30;49136;47.416;19.402;2024-03-07T04:05:02;5.75;97.60
63051;SHT30;49136;47.416;19.402;2024-03-07T04:07:29;5.75;97.09
63051;SHT30;49136;47.416;19.402;2024-03-07T04:09:54;5.81;96.50
63051;SHT30;49136;47.416;19.402;2024-03-07T04:12:20;5.78;96.59
63051;SHT30;49136;47.416;19.402;2024-03-07T04:14:46;5.73;97.10
63051;SHT30;49136;47.416;19.402;2024-03-07T04:17:11;5.67;97.64
63051;SHT30;49136;47.416;19.402;2024-03-07T04:19:41;5.63;98.36
63051;SHT30;49136;47.416;19.402;2024-03-07T04:22:08;5.66;98.78
63051;SHT30;49136;47.416;19.402;2024-03-07T04:24:34;5.60;98.17
63051;SHT30;49136;47.416;19.402;2024-03-07T04:27:01;5.59;98.83
63051;SHT30;49136;47.416;19.402;2024-03-07T04:29:29;5.59;98.06
63051;SHT30;49136;47.416;19.402;2024-03-07T04:31:55;5.62;97.95
63051;SHT30;49136;47.416;19.402;2024-03-07T04:34:20;5.60;98.69
63051;SHT30;49136;47.416;19.402;2024-03-07T04:36:46;5.56;98.81
63051;SHT30;49136;47.416;19.402;2024-03-07T04:39:11;5.52;99.00
63051;SHT30;49136;47.416;19.402;2024-03-07T04:41:48;5.53;99.07
63051;SHT30;49136;47.416;19.402;2024-03-07T04:44:13;5.50;99.04
63051;SHT30;49136;47.416;19.402;2024-03-07T04:46:39;5.50;99.20
63051;SHT30;49136;47.416;19.402;2024-03-07T04:49:08;5.54;98.87
63051;SHT30;49136;47.416;19.402;2024-03-07T04:51:34;5.54;98.85
63051;SHT30;49136;47.416;19.402;2024-03-07T04:53:59;5.50;98.86
63051;SHT30;49136;47.416;19.402;2024-03-07T04:56:25;5.47;99.19
63051;SHT30;49136;47.416;19.402;2024-03-07T04:58:50;5.50;99.08
63051;SHT30;49136;47.416;19.402;2024-03-07T05:01:15;5.46;98.60
63051;SHT30;49136;47.416;19.402;2024-03-07T05:03:41;5.40;98.95
63051;SHT30;49136;47.416;19.402;2024-03-07T05:06:07;5.40;99.18
63051;SHT30;49136;47.416;19.402;2024-03-07T05:08:33;5.40;98.38
63051;SHT30;49136;47.416;19.402;2024-03-07T05:10:58;5.40;98.90
63051;SHT30;49136;47.416;19.402;2024-03-07T05:13:24;5.43;97.69
63051;SHT30;49136;47.416;19.402;2024-03-07T05:15:49;5.49;97.21
63051;SHT30;49136;47.416;19.402;2024-03-07T05:18:16;5.45;97.65
63051;SHT30;49136;47.416;19.402;2024-03-07T05:20:42;5.39;97.90
63051;SHT30;49136;47.416;19.402;2024-03-07T05:23:07;5.47;97.37
63051;SHT30;49136;47.416;19.402;2024-03-07T05:25:34;5.42;98.34
63051;SHT30;49136;47.416;19.402;2024-03-07T05:28:05;5.40;98.47
63051;SHT30;49136;47.416;19.402;2024-03-07T05:30:30;5.38;98.74
63051;SHT30;49136;47.416;19.402;2024-03-07T05:32:57;5.35;98.40
63051;SHT30;49136;47.416;19.402;2024-03-07T05:35:24;5.34;98.94
63051;SHT30;49136;47.416;19.402;2024-03-07T05:37:49;5.35;99.00
63051;SHT30;49136;47.416;19.402;2024-03-07T05:40:15;5.35;98.16
63051;SHT30;49136;47.416;19.402;2024-03-07T05:42:41;5.39;97.11
63051;SHT30;49136;47.416;19.402;2024-03-07T05:45:07;5.38;97.98
63051;SHT30;49136;47.416;19.402;2024-03-07T05:47:33;5.38;98.11
63051;SHT30;49136;47.416;19.402;2024-03-07T05:49:59;5.39;98.36
63051;SHT30;49136;47.416;19.402;2024-03-07T05:52:24;5.39;98.58
63051;SHT30;49136;47.416;19.402;2024-03-07T05:54:50;5.36;98.90
63051;SHT30;49136;47.416;19.402;2024-03-07T05:57:15;5.39;97.18
63051;SHT30;49136;47.416;19.402;2024-03-07T05:59:41;5.43;97.35
63051;SHT30;49136;47.416;19.402;2024-03-07T06:02:06;5.42;97.59
63051;SHT30;49136;47.416;19.402;2024-03-07T06:04:32;5.40;97.49
63051;SHT30;49136;47.416;19.402;2024-03-07T06:06:58;5.39;97.17
63051;SHT30;49136;47.416;19.402;2024-03-07T06:09:23;5.39;97.95
63051;SHT30;49136;47.416;19.402;2024-03-07T06:11:49;5.43;97.43
63051;SHT30;49136;47.416;19.402;2024-03-07T06:14:15;5.43;97.18
63051;SHT30;49136;47.416;19.402;2024-03-07T06:16:41;5.46;97.07
63051;SHT30;49136;47.416;19.402;2024-03-07T06:19:07;5.43;96.94
63051;SHT30;49136;47.416;19.402;2024-03-07T06:21:34;5.45;96.83
63051;SHT30;49136;47.416;19.402;2024-03-07T06:24:00;5.49;95.90
63051;SHT30;49136;47.416;19.402;2024-03-07T06:26:29;5.53;95.88
63051;SHT30;49136;47.416;19.402;2024-03-07T06:29:10;5.54;95.22
63051;SHT30;49136;47.416;19.402;2024-03-07T06:31:38;5.60;94.97
63051;SHT30;49136;47.416;19.402;2024-03-07T06:34:04;5.60;94.55
63051;SHT30;49136;47.416;19.402;2024-03-07T06:36:29;5.60;95.25
63051;SHT30;49136;47.416;19.402;2024-03-07T06:38:55;5.64;95.31
63051;SHT30;49136;47.416;19.402;2024-03-07T06:41:20;5.67;95.07
63051;SHT30;49136;47.416;19.402;2024-03-07T06:43:46;5.73;95.18
63051;SHT30;49136;47.416;19.402;2024-03-07T06:46:12;5.78;94.67
63051;SHT30;49136;47.416;19.402;2024-03-07T06:48:42;5.83;95.05
63051;SHT30;49136;47.416;19.402;2024-03-07T06:51:07;5.87;95.54
63051;SHT30;49136;47.416;19.402;2024-03-07T06:53:33;5.88;94.99
63051;SHT30;49136;47.416;19.402;2024-03-07T06:55:59;5.91;94.75
63051;SHT30;49136;47.416;19.402;2024-03-07T06:58:24;5.99;95.34
63051;SHT30;49136;47.416;19.402;2024-03-07T07:00:53;5.95;94.59
63051;SHT30;49136;47.416;19.402;2024-03-07T07:03:21;5.93;94.01
63051;SHT30;49136;47.416;19.402;2024-03-07T07:05:48;5.93;94.23
63051;SHT30;49136;47.416;19.402;2024-03-07T07:08:13;5.90;94.38
63051;SHT30;49136;47.416;19.402;2024-03-07T07:10:39;6.04;94.67
63051;SHT30;49136;47.416;19.402;2024-03-07T07:13:06;5.95;93.98
63051;SHT30;49136;47.416;19.402;2024-03-07T07:15:31;5.93;93.65
63051;SHT30;49136;47.416;19.402;2024-03-07T07:17:57;5.88;93.33
63051;SHT30;49136;47.416;19.402;2024-03-07T07:20:22;5.91;93.46
63051;SHT30;49136;47.416;19.402;2024-03-07T07:22:49;5.90;93.62
63051;SHT30;49136;47.416;19.402;2024-03-07T07:25:16;5.88;93.45
63051;SHT30;49136;47.416;19.402;2024-03-07T07:27:48;5.90;93.16
63051;SHT30;49136;47.416;19.402;2024-03-07T07:30:21;5.99;93.52
63051;SHT30;49136;47.416;19.402;2024-03-07T07:32:51;5.93;93.62
63051;SHT30;49136;47.416;19.402;2024-03-07T07:35:16;5.98;93.21
63051;SHT30;49136;47.416;19.402;2024-03-07T07:37:46;6.04;93.49
63051;SHT30;49136;47.416;19.402;2024-03-07T07:40:15;6.05;93.42
63051;SHT30;49136;47.416;19.402;2024-03-07T07:42:47;6.08;93.21
63051;SHT30;49136;47.416;19.402;2024-03-07T07:45:14;6.19;94.07
63051;SHT30;49136;47.416;19.402;2024-03-07T07:47:47;6.19;93.67
63051;SHT30;49136;47.416;19.402;2024-03-07T07:50:33;6.14;93.40
63051;SHT30;49136;47.416;19.402;2024-03-07T07:52:59;6.22;93.99
63051;SHT30;49136;47.416;19.402;2024-03-07T07:55:29;6.23;93.11
63051;SHT30;49136;47.416;19.402;2024-03-07T07:57:59;6.21;93.04
63051;SHT30;49136;47.416;19.402;2024-03-07T08:00:26;6.34;93.87
63051;SHT30;49136;47.416;19.402;2024-03-07T08:03:04;6.43;94.52
63051;SHT30;49136;47.416;19.402;2024-03-07T08:05:32;6.25;92.83
63051;SHT30;49136;47.416;19.402;2024-03-07T08:08:00;6.32;92.84
63051;SHT30;49136;47.416;19.402;2024-03-07T08:10:28;6.40;93.55
63051;SHT30;49136;47.416;19.402;2024-03-07T08:12:55;6.49;92.58
63051;SHT30;49136;47.416;19.402;2024-03-07T08:15:20;6.37;91.98
63051;SHT30;49136;47.416;19.402;2024-03-07T08:17:47;6.44;92.15
63051;SHT30;49136;47.416;19.402;2024-03-07T08:20:14;6.64;92.55
63051;SHT30;49136;47.416;19.402;2024-03-07T08:22:41;6.68;91.46
63051;SHT30;49136;47.416;19.402;2024-03-07T08:25:11;6.71;90.46
63051;SHT30;49136;47.416;19.402;2024-03-07T08:27:42;6.53;91.59
63051;SHT30;49136;47.416;19.402;2024-03-07T08:30:09;6.88;92.10
63051;SHT30;49136;47.416;19.402;2024-03-07T08:32:48;6.88;91.01
63051;SHT30;49136;47.416;19.402;2024-03-07T08:35:14;6.85;90.46
63051;SHT30;49136;47.416;19.402;2024-03-07T08:37:51;6.81;90.74
63051;SHT30;49136;47.416;19.402;2024-03-07T08:40:22;6.85;92.07
63051;SHT30;49136;47.416;19.402;2024-03-07T08:42:53;7.02;91.98
63051;SHT30;49136;47.416;19.402;2024-03-07T08:45:21;6.78;91.11
63051;SHT30;49136;47.416;19.402;2024-03-07T08:47:51;6.88;91.36
63051;SHT30;49136;47.416;19.402;2024-03-07T08:50:18;7.02;90.91
63051;SHT30;49136;47.416;19.402;2024-03-07T08:52:44;7.06;90.83
63051;SHT30;49136;47.416;19.402;2024-03-07T08:55:13;6.89;91.43
63051;SHT30;49136;47.416;19.402;2024-03-07T08:57:40;6.91;91.77
63051;SHT30;49136;47.416;19.402;2024-03-07T09:00:07;7.10;91.67
63051;SHT30;49136;47.416;19.402;2024-03-07T09:02:53;7.05;90.89
63051;SHT30;49136;47.416;19.402;2024-03-07T09:05:20;7.10;90.55
63051;SHT30;49136;47.416;19.402;2024-03-07T09:07:47;7.16;90.45
63051;SHT30;49136;47.416;19.402;2024-03-07T09:10:13;7.35;90.90
63051;SHT30;49136;47.416;19.402;2024-03-07T09:12:43;7.46;90.48
63051;SHT30;49136;47.416;19.402;2024-03-07T09:15:09;7.51;89.19
63051;SHT30;49136;47.416;19.402;2024-03-07T09:17:38;7.31;88.53
63051;SHT30;49136;47.416;19.402;2024-03-07T09:20:07;6.99;88.80
63051;SHT30;49136;47.416;19.402;2024-03-07T09:22:45;7.16;89.80
63051;SHT30;49136;47.416;19.402;2024-03-07T09:25:10;7.23;90.24
63051;SHT30;49136;47.416;19.402;2024-03-07T09:27:38;7.30;90.32
63051;SHT30;49136;47.416;19.402;2024-03-07T09:30:06;7.10;89.46
63051;SHT30;49136;47.416;19.402;2024-03-07T09:32:38;7.02;89.20
63051;SHT30;49136;47.416;19.402;2024-03-07T09:35:04;7.12;88.62
63051;SHT30;49136;47.416;19.402;2024-03-07T09:37:32;7.43;88.52
63051;SHT30;49136;47.416;19.402;2024-03-07T09:39:57;7.37;88.53
63051;SHT30;49136;47.416;19.402;2024-03-07T09:42:25;7.44;88.52
63051;SHT30;49136;47.416;19.402;2024-03-07T09:44:51;7.46;88.42
63051;SHT30;49136;47.416;19.402;2024-03-07T09:47:17;7.43;87.80
63051;SHT30;49136;47.416;19.402;2024-03-07T09:49:43;7.48;87.94
63051;SHT30;49136;47.416;19.402;2024-03-07T09:52:11;7.51;87.64
63051;SHT30;49136;47.416;19.402;2024-03-07T09:54:39;7.30;87.91
63051;SHT30;49136;47.416;19.402;2024-03-07T09:57:06;7.46;86.78
63051;SHT30;49136;47.416;19.402;2024-03-07T09:59:34;7.57;86.18
63051;SHT30;49136;47.416;19.402;2024-03-07T10:02:03;7.74;86.30
63051;SHT30;49136;47.416;19.402;2024-03-07T10:04:44;7.92;86.74
63051;SHT30;49136;47.416;19.402;2024-03-07T10:07:15;7.57;86.52
63051;SHT30;49136;47.416;19.402;2024-03-07T10:09:42;7.74;86.43
63051;SHT30;49136;47.416;19.402;2024-03-07T10:12:08;7.90;86.09
63051;SHT30;49136;47.416;19.402;2024-03-07T10:14:48;8.14;85.45
63051;SHT30;49136;47.416;19.402;2024-03-07T10:17:14;7.74;85.76
63051;SHT30;49136;47.416;19.402;2024-03-07T10:19:40;7.78;85.08
63051;SHT30;49136;47.416;19.402;2024-03-07T10:22:06;7.83;84.73
63051;SHT30;49136;47.416;19.402;2024-03-07T10:24:31;7.86;85.96
63051;SHT30;49136;47.416;19.402;2024-03-07T10:26:58;7.81;85.42
63051;SHT30;49136;47.416;19.402;2024-03-07T10:29:25;7.89;85.53
63051;SHT30;49136;47.416;19.402;2024-03-07T10:31:50;7.75;84.16
63051;SHT30;49136;47.416;19.402;2024-03-07T10:34:16;7.83;84.72
63051;SHT30;49136;47.416;19.402;2024-03-07T10:36:42;8.11;84.96
63051;SHT30;49136;47.416;19.402;2024-03-07T10:39:08;8.06;83.25
63051;SHT30;49136;47.416;19.402;2024-03-07T10:41:48;7.71;83.96
63051;SHT30;49136;47.416;19.402;2024-03-07T10:44:25;7.82;84.30
63051;SHT30;49136;47.416;19.402;2024-03-07T10:46:58;8.21;84.70
63051;SHT30;49136;47.416;19.402;2024-03-07T10:49:31;8.02;83.53
63051;SHT30;49136;47.416;19.402;2024-03-07T10:52:16;8.26;84.08
63051;SHT30;49136;47.416;19.402;2024-03-07T10:55:00;8.24;84.14
63051;SHT30;49136;47.416;19.402;2024-03-07T10:57:34;8.00;83.14
63051;SHT30;49136;47.416;19.402;2024-03-07T11:00:04;7.67;83.97
63051;SHT30;49136;47.416;19.402;2024-03-07T11:02:52;7.81;83.84
63051;SHT30;49136;47.416;19.402;2024-03-07T11:05:20;7.96;83.44
63051;SHT30;49136;47.416;19.402;2024-03-07T11:07:49;8.19;83.19
63051;SHT30;49136;47.416;19.402;2024-03-07T11:10:16;8.17;82.85
63051;SHT30;49136;47.416;19.402;2024-03-07T11:12:44;8.09;82.90
63051;SHT30;49136;47.416;19.402;2024-03-07T11:15:12;8.28;84.18
63051;SHT30;49136;47.416;19.402;2024-03-07T11:17:46;8.24;82.45
63051;SHT30;49136;47.416;19.402;2024-03-07T11:20:21;8.20;83.57
63051;SHT30;49136;47.416;19.402;2024-03-07T11:22:48;8.06;83.27
63051;SHT30;49136;47.416;19.402;2024-03-07T11:25:18;8.07;82.69
63051;SHT30;49136;47.416;19.402;2024-03-07T11:28:00;7.83;84.09
63051;SHT30;49136;47.416;19.402;2024-03-07T11:30:27;7.65;84.13
63051;SHT30;49136;47.416;19.402;2024-03-07T11:32:54;7.75;84.95
63051;SHT30;49136;47.416;19.402;2024-03-07T11:35:40;7.69;84.04
63051;SHT30;49136;47.416;19.402;2024-03-07T11:38:14;7.48;84.87
63051;SHT30;49136;47.416;19.402;2024-03-07T11:43:05;7.31;85.82
63051;SHT30;49136;47.416;19.402;2024-03-07T11:45:31;7.37;86.09
63051;SHT30;49136;47.416;19.402;2024-03-07T11:48:10;7.43;86.09
63051;SHT30;49136;47.416;19.402;2024-03-07T11:50:39;7.30;85.75
63051;SHT30;49136;47.416;19.402;2024-03-07T11:53:06;7.31;85.77
63051;SHT30;49136;47.416;19.402;2024-03-07T11:55:36;7.19;85.93
63051;SHT30;49136;47.416;19.402;2024-03-07T11:58:14;7.23;86.50
63051;SHT30;49136;47.416;19.402;2024-03-07T12:00:45;7.30;86.72
63051;SHT30;49136;47.416;19.402;2024-03-07T12:03:15;7.34;86.04
63051;SHT30;49136;47.416;19.402;2024-03-07T12:05:44;7.30;85.53
63051;SHT30;49136;47.416;19.402;2024-03-07T12:08:10;7.34;86.54
63051;SHT30;49136;47.416;19.402;2024-03-07T12:10:38;7.31;88.18
63051;SHT30;49136;47.416;19.402;2024-03-07T12:13:10;7.33;89.11
63051;SHT30;49136;47.416;19.402;2024-03-07T12:15:37;7.33;88.63
63051;SHT30;49136;47.416;19.402;2024-03-07T12:18:04;7.38;89.19
63051;SHT30;49136;47.416;19.402;2024-03-07T12:20:35;7.33;89.55
63051;SHT30;49136;47.416;19.402;2024-03-07T12:23:00;7.41;90.48
63051;SHT30;49136;47.416;19.402;2024-03-07T12:25:31;7.33;89.20
63051;SHT30;49136;47.416;19.402;2024-03-07T12:28:04;7.30;88.56
63051;SHT30;49136;47.416;19.402;2024-03-07T12:30:32;7.22;88.81
63051;SHT30;49136;47.416;19.402;2024-03-07T12:32:59;7.34;88.67
63051;SHT30;49136;47.416;19.402;2024-03-07T12:35:25;7.35;88.69
63051;SHT30;49136;47.416;19.402;2024-03-07T12:37:51;7.37;88.92
63051;SHT30;49136;47.416;19.402;2024-03-07T12:40:19;7.34;87.67
63051;SHT30;49136;47.416;19.402;2024-03-07T12:42:50;7.35;87.53
63051;SHT30;49136;47.416;19.402;2024-03-07T12:45:17;7.17;87.86
63051;SHT30;49136;47.416;19.402;2024-03-07T12:47:51;7.31;88.75
63051;SHT30;49136;47.416;19.402;2024-03-07T12:50:20;7.44;88.19
63051;SHT30;49136;47.416;19.402;2024-03-07T12:52:48;7.30;88.47
63051;SHT30;49136;47.416;19.402;2024-03-07T12:55:17;7.30;88.50
63051;SHT30;49136;47.416;19.402;2024-03-07T12:57:48;7.30;88.88
63051;SHT30;49136;47.416;19.402;2024-03-07T13:00:16;7.26;88.62
63051;SHT30;49136;47.416;19.402;2024-03-07T13:02:49;7.23;88.65
63051;SHT30;49136;47.416;19.402;2024-03-07T13:05:15;7.23;88.35
63051;SHT30;49136;47.416;19.402;2024-03-07T13:07:46;7.38;89.03
63051;SHT30;49136;47.416;19.402;2024-03-07T13:10:13;7.37;88.21
63051;SHT30;49136;47.416;19.402;2024-03-07T13:12:44;7.24;87.59
63051;SHT30;49136;47.416;19.402;2024-03-07T13:15:15;7.19;88.55
63051;SHT30;49136;47.416;19.402;2024-03-07T13:17:40;7.31;88.82
63051;SHT30;49136;47.416;19.402;2024-03-07T13:20:11;7.41;88.77
63051;SHT30;49136;47.416;19.402;2024-03-07T13:22:44;7.28;87.45
63051;SHT30;49136;47.416;19.402;2024-03-07T13:25:23;7.33;87.10
63051;SHT30;49136;47.416;19.402;2024-03-07T13:28:07;7.17;86.42
63051;SHT30;49136;47.416;19.402;2024-03-07T13:30:36;7.23;88.12
63051;SHT30;49136;47.416;19.402;2024-03-07T13:33:03;7.37;87.34
63051;SHT30;49136;47.416;19.402;2024-03-07T13:35:28;7.41;87.68
63051;SHT30;49136;47.416;19.402;2024-03-07T13:37:55;7.34;88.02
63051;SHT30;49136;47.416;19.402;2024-03-07T13:40:22;7.35;89.79
63051;SHT30;49136;47.416;19.402;2024-03-07T13:42:55;7.40;89.48
63051;SHT30;49136;47.416;19.402;2024-03-07T13:45:24;7.30;91.25
63051;SHT30;49136;47.416;19.402;2024-03-07T13:47:52;7.26;91.55
63051;SHT30;49136;47.416;19.402;2024-03-07T13:50:20;7.30;92.38
63051;SHT30;49136;47.416;19.402;2024-03-07T13:52:50;7.06;92.77
63051;SHT30;49136;47.416;19.402;2024-03-07T13:55:54;7.09;93.65
63051;SHT30;49136;47.416;19.402;2024-03-07T13:58:40;7.13;94.03
63051;SHT30;49136;47.416;19.402;2024-03-07T14:04:32;7.13;94.45
63051;SHT30;49136;47.416;19.402;2024-03-07T14:26:49;6.58;96.24
63051;SHT30;49136;47.416;19.402;2024-03-07T14:32:12;6.77;95.99
63051;SHT30;49136;47.416;19.402;2024-03-07T14:34:47;6.65;96.41
63051;SHT30;49136;47.416;19.402;2024-03-07T14:37:25;6.71;97.21
63051;SHT30;49136;47.416;19.402;2024-03-07T14:40:06;6.74;97.21
63051;SHT30;49136;47.416;19.402;2024-03-07T14:42:42;6.84;97.23
63051;SHT30;49136;47.416;19.402;2024-03-07T14:45:12;6.68;96.48
63051;SHT30;49136;47.416;19.402;2024-03-07T14:47:38;6.67;96.86
63051;SHT30;49136;47.416;19.402;2024-03-07T14:50:04;6.60;97.69
63051;SHT30;49136;47.416;19.402;2024-03-07T14:52:31;6.50;98.24
63051;SHT30;49136;47.416;19.402;2024-03-07T14:54:56;6.51;98.07
63051;SHT30;49136;47.416;19.402;2024-03-07T14:57:22;6.51;98.58
63051;SHT30;49136;47.416;19.402;2024-03-07T14:59:48;6.22;98.70
63051;SHT30;49136;47.416;19.402;2024-03-07T15:02:15;6.39;99.28
63051;SHT30;49136;47.416;19.402;2024-03-07T15:04:40;6.34;99.36
63051;SHT30;49136;47.416;19.402;2024-03-07T15:07:06;6.25;99.91
63051;SHT30;49136;47.416;19.402;2024-03-07T15:09:35;6.19;99.74
63051;SHT30;49136;47.416;19.402;2024-03-07T15:12:01;6.25;99.99
63051;SHT30;49136;47.416;19.402;2024-03-07T15:14:27;6.15;99.99
63051;SHT30;49136;47.416;19.402;2024-03-07T15:16:52;6.28;99.99
63051;SHT30;49136;47.416;19.402;2024-03-07T15:19:18;6.28;99.99
63051;SHT30;49136;47.416;19.402;2024-03-07T15:21:44;6.18;99.99
63051;SHT30;49136;47.416;19.402;2024-03-07T15:24:09;6.08;99.99
63051;SHT30;49136;47.416;19.402;2024-03-07T15:26:36;6.19;99.99
63051;SHT30;49136;47.416;19.402;2024-03-07T15:29:01;6.11;99.99
63051;SHT30;49136;47.416;19.402;2024-03-07T15:31:27;6.04;99.99
63051;SHT30;49136;47.416;19.402;2024-03-07T15:33:53;5.91;99.99
63051;SHT30;49136;47.416;19.402;2024-03-07T15:36:19;5.94;99.99
63051;SHT30;49136;47.416;19.402;2024-03-07T15:38:44;5.88;99.99
63051;SHT30;49136;47.416;19.402;2024-03-07T15:41:10;5.95;99.99
63051;SHT30;49136;47.416;19.402;2024-03-07T15:43:41;5.93;99.99
63051;SHT30;49136;47.416;19.402;2024-03-07T15:46:14;5.86;99.99
63051;SHT30;49136;47.416;19.402;2024-03-07T15:48:44;5.80;99.99
63051;SHT30;49136;47.416;19.402;2024-03-07T15:51:09;5.73;99.99
63051;SHT30;49136;47.416;19.402;2024-03-07T15:53:37;5.80;99.99
63051;SHT30;49136;47.416;19.402;2024-03-07T15:56:03;5.83;99.99
63051;SHT30;49136;47.416;19.402;2024-03-07T15:58:28;5.75;99.99
63051;SHT30;49136;47.416;19.402;2024-03-07T16:00:54;5.74;99.99
63051;SHT30;49136;47.416;19.402;2024-03-07T16:03:21;5.73;99.99